Time;durP1;ratioP1;P1;durP2;ratioP2;P2;SDS_P1;SDS_P2;PMS_P1;PMS_P2;Temp;Humidity;BMP_temperature;BMP_pressure;BME280_temperature;BME280_humidity;BME280_pressure;Samples;Min_cycle;Max_cycle;Signal;HPM_P1;HPM_P2
2021/07/21 00:00:59;;;;;;;4.57;2.00;;;;;;;24.45;47.00;99029.09;3387357;29;20032;-68
2021/07/21 00:02:40;;;;;;;4.33;2.03;;;;;;;24.40;46.74;99026.44;3398750;29;20051;-69
2021/07/21 00:04:20;;;;;;;4.57;2.13;;;;;;;24.34;46.86;99028.47;3402409;28;20051;-69
2021/07/21 00:06:01;;;;;;;7.97;2.30;;;;;;;24.36;47.32;99028.94;3401569;29;20430;-68
2021/07/21 00:07:42;;;;;;;2.07;1.70;;;;;;;24.39;47.38;99022.09;3410604;28;20122;-67
2021/07/21 00:09:23;;;;;;;5.70;2.53;;;;;;;24.42;47.26;99026.94;3414402;28;20430;-69
2021/07/21 00:15:06;;;;;;;2.85;2.08;;;;;;;24.33;46.77;99024.09;3406032;28;20475;-69
2021/07/21 00:17:07;;;;;;;3.13;2.20;;;;;;;24.32;46.78;99027.94;3405976;28;20075;-70
2021/07/21 00:19:03;;;;;;;2.20;1.83;;;;;;;24.32;46.82;99021.69;3417006;28;20130;-68
2021/07/21 00:20:45;;;;;;;6.55;2.40;;;;;;;24.29;46.89;99019.56;3417178;28;20294;-68
2021/07/21 00:22:27;;;;;;;5.05;2.33;;;;;;;24.25;47.07;99021.28;3416780;28;20050;-68
2021/07/21 00:24:08;;;;;;;3.00;2.20;;;;;;;24.20;47.14;99016.72;3417171;28;20070;-68
2021/07/21 00:25:49;;;;;;;4.27;2.10;;;;;;;24.22;47.27;99013.72;3402715;29;20530;-69
2021/07/21 00:27:30;;;;;;;6.05;2.20;;;;;;;24.24;47.23;99008.75;3402825;29;20071;-67
2021/07/21 00:29:10;;;;;;;3.87;2.47;;;;;;;24.21;47.02;99015.63;3403542;29;20486;-68
2021/07/21 00:30:51;;;;;;;3.43;2.10;;;;;;;24.18;47.08;99010.78;3414897;28;20054;-68
2021/07/21 00:32:32;;;;;;;3.33;2.03;;;;;;;24.17;47.52;99012.69;3402452;29;20044;-68
2021/07/21 00:34:13;;;;;;;4.03;1.90;;;;;;;24.12;47.20;99009.25;3414049;28;20157;-68
2021/07/21 00:35:54;;;;;;;2.67;2.20;;;;;;;24.15;47.37;99011.38;3387556;29;20044;-68
2021/07/21 00:37:36;;;;;;;3.33;2.20;;;;;;;24.13;47.02;99008.94;3401650;28;20040;-69
2021/07/21 00:39:17;;;;;;;3.60;2.33;;;;;;;24.10;47.38;99000.59;3389451;29;20559;-68
2021/07/21 00:40:58;;;;;;;6.50;1.73;;;;;;;24.10;47.72;99008.75;3400265;29;20098;-69
2021/07/21 00:42:39;;;;;;;4.47;2.22;;;;;;;24.04;47.63;98999.88;3389143;29;20056;-69
2021/07/21 00:44:19;;;;;;;4.80;1.83;;;;;;;24.02;47.62;99001.28;3389300;29;20040;-68
2021/07/21 00:46:05;;;;;;;6.45;2.17;;;;;;;24.02;47.50;99001.28;3387625;29;20582;-68
2021/07/21 00:47:46;;;;;;;6.03;2.17;;;;;;;24.03;47.32;99002.88;3396312;29;20134;-70
2021/07/21 00:49:27;;;;;;;4.53;2.27;;;;;;;24.05;47.60;99000.69;3376000;29;20473;-69
2021/07/21 00:51:09;;;;;;;6.88;2.22;;;;;;;24.00;47.54;98987.97;3373740;29;20044;-70
2021/07/21 00:52:51;;;;;;;6.00;2.38;;;;;;;24.05;47.24;99000.69;3373547;29;20451;-70
2021/07/21 00:54:36;;;;;;;3.08;1.85;;;;;;;24.03;47.57;98992.00;3387128;29;20104;-69
2021/07/21 00:56:17;;;;;;;;;;;;;;;24.07;47.31;98990.31;3363808;29;20055;-70
2021/07/21 00:57:58;;;;;;;3.50;2.10;;;;;;;24.01;47.61;98983.31;3395462;29;19922;-69
2021/07/21 00:59:41;;;;;;;4.60;1.85;;;;;;;23.95;47.38;98985.34;3399831;29;20047;-69
2021/07/21 01:01:22;;;;;;;6.20;2.10;;;;;;;23.94;47.48;98989.97;3386394;29;20575;-68
2021/07/21 01:03:04;;;;;;;3.47;1.77;;;;;;;23.91;47.65;98990.56;3397201;29;20051;-68
2021/07/21 01:04:48;;;;;;;5.75;2.22;;;;;;;23.91;47.77;98990.56;3389293;29;20520;-68
2021/07/21 01:06:28;;;;;;;2.27;2.07;;;;;;;23.92;47.64;98992.19;3411375;28;20142;-68
2021/07/21 01:08:13;;;;;;;3.33;2.08;;;;;;;23.92;47.99;98985.94;3400928;29;20082;-72
2021/07/21 01:10:11;;;;;;;2.92;2.15;;;;;;;23.95;47.92;98988.84;3402480;29;20659;-71
2021/07/21 01:12:01;;;;;;;3.55;1.65;;;;;;;23.97;47.91;98991.28;3386797;29;20075;-68
2021/07/21 01:14:08;;;;;;;6.32;2.58;;;;;;;23.96;47.75;98984.25;3388341;29;20063;-68
2021/07/21 01:15:57;;;;;;;5.20;2.50;;;;;;;23.91;47.86;98979.69;3416161;28;20106;-71
2021/07/21 01:17:55;;;;;;;3.30;2.03;;;;;;;23.91;48.22;98987.84;3395830;29;20045;-70
2021/07/21 01:20:27;;;;;;;5.65;2.38;;;;;;;23.88;48.25;98983.03;3375625;29;20552;-73
2021/07/21 01:22:25;;;;;;;5.93;2.40;;;;;;;23.85;48.37;98978.19;3388917;29;20512;-69
2021/07/21 01:24:21;;;;;;;8.88;2.40;;;;;;;23.83;47.84;98971.44;3374765;29;20168;-69
2021/07/21 01:26:10;;;;;;;6.20;2.10;;;;;;;23.83;48.59;98966.78;3405430;28;20082;-69
2021/07/21 01:27:58;;;;;;;6.25;2.38;;;;;;;23.77;48.63;98957.06;3399233;29;20043;-70
2021/07/21 01:29:39;;;;;;;4.47;2.33;;;;;;;23.76;48.25;98963.63;3399994;29;20418;-72
2021/07/21 01:31:33;;;;;;;4.82;2.28;;;;;;;23.75;48.51;98959.31;3413820;28;20498;-74
2021/07/21 01:33:14;;;;;;;7.65;2.72;;;;;;;23.71;48.49;98958.25;3389020;29;20495;-69
2021/07/21 01:35:34;;;;;;;7.85;2.75;;;;;;;23.72;48.83;98954.44;3384651;29;20149;-69
2021/07/21 01:37:19;;;;;;;4.22;2.63;;;;;;;23.68;48.82;98956.13;3382533;29;20047;-70
2021/07/21 01:39:04;;;;;;;6.43;2.38;;;;;;;23.69;49.03;98957.75;3399570;29;20420;-74
2021/07/21 01:40:57;;;;;;;5.53;2.13;;;;;;;23.68;48.97;98953.41;3400511;29;20058;-73
2021/07/21 01:42:40;;;;;;;5.47;2.67;;;;;;;23.68;49.05;98956.94;3399960;29;20043;-70
2021/07/21 01:44:26;;;;;;;2.92;1.98;;;;;;;23.69;49.32;98955.81;3386234;29;20427;-70
2021/07/21 01:46:07;;;;;;;7.22;2.70;;;;;;;23.68;48.87;98951.50;3398974;29;20044;-70
2021/07/21 01:47:49;;;;;;;6.65;2.45;;;;;;;23.69;48.89;98955.03;3388898;29;20060;-70
2021/07/21 01:49:39;;;;;;;7.25;2.75;;;;;;;23.67;48.84;98958.06;3397709;29;20050;-67
2021/07/21 01:51:26;;;;;;;6.38;2.95;;;;;;;23.65;49.51;98954.03;3399916;29;20139;-69
2021/07/21 01:53:07;;;;;;;6.03;2.30;;;;;;;23.66;49.14;98955.63;3386642;29;20043;-68
2021/07/21 01:54:49;;;;;;;5.20;3.40;;;;;;;23.67;48.92;98957.22;3399283;29;20046;-70
2021/07/21 01:56:34;;;;;;;3.72;2.33;;;;;;;23.66;49.07;98958.34;3384332;29;20507;-68
2021/07/21 01:58:16;;;;;;;;;;;;;;;23.68;48.75;98953.41;3384226;29;20624;-69
2021/07/21 02:00:15;;;;;;;5.50;2.45;;;;;;;23.64;49.28;98964.06;3387742;29;19923;-69
2021/07/21 02:02:02;;;;;;;4.63;2.92;;;;;;;23.66;49.69;98966.50;3388978;29;20131;-69
2021/07/21 02:03:53;;;;;;;10.95;2.85;;;;;;;23.71;49.29;98956.34;3375230;29;21224;-68
2021/07/21 02:05:42;;;;;;;6.45;2.70;;;;;;;23.69;49.23;98961.25;3373629;29;20048;-68
2021/07/21 02:07:23;;;;;;;;;;;;;;;23.74;49.20;98963.13;3386180;29;20047;-69
2021/07/21 02:09:09;;;;;;;4.78;2.53;;;;;;;23.73;49.47;98966.97;3385669;29;19915;-69
2021/07/21 02:10:51;;;;;;;6.00;2.88;;;;;;;23.73;49.34;98956.06;3373043;29;20055;-68
2021/07/21 02:12:35;;;;;;;5.80;2.50;;;;;;;23.71;49.17;98963.69;3386199;29;20051;-69
2021/07/21 02:14:18;;;;;;;4.25;2.67;;;;;;;23.73;49.46;98965.03;3373241;29;20072;-68
2021/07/21 02:16:22;;;;;;;5.05;2.13;;;;;;;23.76;49.29;98965.56;3388740;29;20040;-70
2021/07/21 02:18:04;;;;;;;5.28;2.70;;;;;;;23.80;49.26;98966.56;3388926;29;20044;-69
2021/07/21 02:19:47;;;;;;;4.82;2.60;;;;;;;23.81;49.30;98960.81;3384645;29;20555;-69
2021/07/21 02:21:36;;;;;;;5.72;2.80;;;;;;;23.85;49.29;98959.13;3397518;29;20103;-70
2021/07/21 02:23:20;;;;;;;3.88;2.42;;;;;;;23.87;49.29;98956.88;3386319;29;20059;-68
2021/07/21 02:25:02;;;;;;;9.27;2.83;;;;;;;23.88;49.44;98963.13;3396338;29;20046;-69
2021/07/21 02:26:45;;;;;;;5.78;2.83;;;;;;;23.87;49.39;98967.78;3399041;29;20039;-68
2021/07/21 02:28:27;;;;;;;3.67;2.38;;;;;;;23.89;49.49;98965.56;3385364;29;20048;-68
2021/07/21 02:30:14;;;;;;;5.50;2.60;;;;;;;23.91;49.39;98966.09;3386213;29;20044;-68
2021/07/21 02:32:16;;;;;;;3.55;3.17;;;;;;;23.94;49.17;98965.47;3388167;29;20044;-68
2021/07/21 02:34:02;;;;;;;4.47;2.45;;;;;;;23.95;49.40;98971.72;3388333;29;20118;-68
2021/07/21 02:35:43;;;;;;;8.48;3.17;;;;;;;23.97;49.55;98972.22;3387426;29;20059;-69
2021/07/21 02:37:25;;;;;;;3.53;2.73;;;;;;;23.99;49.48;98963.78;3388619;29;20044;-70
2021/07/21 02:39:06;;;;;;;;;;;;;;;24.06;49.28;98975.88;3392933;29;20046;-68
2021/07/21 02:40:48;;;;;;;4.15;2.60;;;;;;;24.03;49.14;98979.19;3402300;29;19919;-69
2021/07/21 02:42:40;;;;;;;6.97;3.10;;;;;;;23.94;48.87;98973.63;3399787;29;20503;-71
2021/07/21 02:44:21;;;;;;;5.83;2.97;;;;;;;23.95;49.33;98980.69;3401842;29;20142;-69
2021/07/21 02:46:06;;;;;;;5.00;3.38;;;;;;;23.93;49.37;98977.47;3400873;29;20655;-70
2021/07/21 02:47:47;;;;;;;4.38;2.97;;;;;;;23.93;49.25;98974.75;3398452;29;20499;-69
2021/07/21 02:49:28;;;;;;;4.57;3.15;;;;;;;23.94;49.09;98981.81;3396488;29;20436;-68
2021/07/21 02:51:27;;;;;;;5.57;2.50;;;;;;;24.00;48.74;98979.78;3388397;29;20126;-68
2021/07/21 02:53:18;;;;;;;4.90;3.13;;;;;;;24.00;48.74;98981.72;3388130;29;20051;-69
2021/07/21 02:55:41;;;;;;;8.38;3.30;;;;;;;24.04;48.77;98982.75;3401159;29;20526;-68
2021/07/21 02:57:29;;;;;;;5.50;2.50;;;;;;;24.04;49.09;98988.19;3401166;29;20471;-69
2021/07/21 02:59:13;;;;;;;10.55;3.00;;;;;;;24.03;48.63;98992.00;3380215;29;20098;-69
2021/07/21 03:00:58;;;;;;;5.05;2.72;;;;;;;24.02;48.77;98984.94;3395506;29;20059;-69
2021/07/21 03:02:46;;;;;;;6.00;2.60;;;;;;;24.05;48.87;98989.78;3379455;29;20052;-68
2021/07/21 03:04:28;;;;;;;6.30;2.80;;;;;;;24.08;48.77;98989.97;3376656;29;20040;-68
2021/07/21 03:06:22;;;;;;;4.22;2.67;;;;;;;24.16;49.25;98988.47;3373708;29;20120;-68
2021/07/21 03:08:16;;;;;;;7.43;2.83;;;;;;;24.24;48.48;98990.53;3387134;29;20054;-69
2021/07/21 03:10:00;;;;;;;6.15;3.00;;;;;;;24.30;48.63;98996.69;3374222;29;20048;-68
2021/07/21 03:11:49;;;;;;;6.53;3.00;;;;;;;24.28;47.71;98990.72;3371153;29;20049;-70
2021/07/21 03:14:00;;;;;;;6.28;3.08;;;;;;;24.31;47.83;98980.00;3387015;29;20036;-68
2021/07/21 03:15:46;;;;;;;4.28;2.20;;;;;;;24.29;48.36;98990.44;3374527;29;20060;-69
2021/07/21 03:17:31;;;;;;;4.90;2.22;;;;;;;24.32;47.73;98976.19;3386565;29;20048;-69
2021/07/21 03:19:15;;;;;;;4.50;2.50;;;;;;;24.40;47.66;98987.50;3374519;29;20051;-70
2021/07/21 03:20:59;;;;;;;5.88;2.35;;;;;;;24.45;47.77;98976.53;3385843;29;20411;-68
2021/07/21 03:22:44;;;;;;;5.80;2.65;;;;;;;24.51;47.80;98987.00;3388230;29;20055;-69
2021/07/21 03:24:34;;;;;;;11.55;2.60;;;;;;;24.58;47.18;98975.72;3386239;29;20052;-69
2021/07/21 03:26:30;;;;;;;3.90;2.53;;;;;;;24.63;47.06;98978.31;3402076;29;20048;-68
2021/07/21 03:28:11;;;;;;;5.47;2.22;;;;;;;24.65;46.42;98981.53;3402333;29;20491;-67
2021/07/21 03:30:14;;;;;;;2.83;1.48;;;;;;;24.66;46.24;98982.34;3401447;29;20522;-70
2021/07/21 03:32:05;;;;;;;5.78;2.40;;;;;;;24.63;46.43;98989.22;3399287;29;20078;-70
2021/07/21 03:33:55;;;;;;;6.30;2.17;;;;;;;24.62;46.57;98986.78;3383691;29;20052;-70
2021/07/21 03:35:37;;;;;;;3.47;2.22;;;;;;;24.61;46.73;98988.72;3385374;29;20048;-69
2021/07/21 03:37:19;;;;;;;8.07;2.47;;;;;;;24.61;46.30;98986.00;3387440;29;20511;-69
2021/07/21 03:39:18;;;;;;;2.83;1.70;;;;;;;24.61;46.15;98990.63;3374950;29;20135;-68
2021/07/21 03:41:19;;;;;;;4.03;1.75;;;;;;;24.59;46.07;98985.47;3387486;29;20048;-70
2021/07/21 03:43:01;;;;;;;7.57;2.30;;;;;;;24.60;46.52;98987.09;3393552;28;20214;-70
2021/07/21 03:44:50;;;;;;;5.03;2.13;;;;;;;24.63;46.07;98991.94;3414651;28;20514;-68
2021/07/21 03:46:31;;;;;;;;;;;;;;;24.71;45.99;98985.78;3388005;29;20055;-68
2021/07/21 03:48:12;;;;;;;11.23;2.10;;;;;;;24.70;45.58;98986.88;3397595;29;20001;-68
2021/07/21 03:50:23;;;;;;;5.80;1.77;;;;;;;24.72;45.41;98986.56;3390721;29;20430;-68
2021/07/21 03:52:09;;;;;;;4.45;1.73;;;;;;;24.74;45.32;98996.06;3401092;29;20075;-69
2021/07/21 03:53:52;;;;;;;4.35;1.77;;;;;;;24.75;45.05;98981.31;3399101;29;20487;-68
2021/07/21 03:55:36;;;;;;;2.73;1.67;;;;;;;24.77;44.80;98984.53;3400976;29;20051;-69
2021/07/21 03:57:26;;;;;;;2.05;1.70;;;;;;;24.80;45.24;98978.47;3401716;29;20047;-67
2021/07/21 03:59:08;;;;;;;;;;;;;;;24.90;44.74;98984.81;3401128;29;20044;-68
2021/07/21 04:00:56;;;;;;;2.17;1.33;;;;;;;24.90;44.51;98976.66;3400678;29;20440;-68
2021/07/21 04:02:45;;;;;;;3.33;1.60;;;;;;;24.94;44.58;98983.13;3401979;29;20036;-70
2021/07/21 04:04:27;;;;;;;4.22;1.35;;;;;;;24.98;44.24;98981.38;3387846;29;20047;-68
2021/07/21 04:06:09;;;;;;;2.35;1.45;;;;;;;25.02;44.22;98982.38;3398171;28;20039;-70
2021/07/21 04:08:06;;;;;;;3.90;1.52;;;;;;;25.05;44.02;98984.47;3402271;29;20523;-70
2021/07/21 04:09:50;;;;;;;3.23;1.47;;;;;;;25.06;43.80;98982.56;3387293;29;20048;-69
2021/07/21 04:11:35;;;;;;;3.10;1.88;;;;;;;25.09;43.26;98982.75;3387503;29;20515;-68
2021/07/21 04:13:19;;;;;;;4.35;1.67;;;;;;;25.12;43.76;98979.41;3400801;29;20079;-68
2021/07/21 04:15:29;;;;;;;3.40;1.85;;;;;;;25.17;43.30;98983.97;3374485;29;20401;-69
2021/07/21 04:17:23;;;;;;;3.05;1.65;;;;;;;25.21;43.62;98985.75;3363541;29;20049;-68
2021/07/21 04:19:06;;;;;;;;;;;;;;;25.29;43.73;98986.94;3374404;29;20085;-68
2021/07/21 04:20:49;;;;;;;6.47;1.60;;;;;;;25.29;43.66;98988.88;3374153;29;20387;-69
2021/07/21 04:22:31;;;;;;;2.80;1.38;;;;;;;25.32;43.63;98988.25;3391186;29;20134;-68
2021/07/21 04:24:13;;;;;;;9.73;1.73;;;;;;;25.35;43.76;98991.19;3397993;29;20537;-69
2021/07/21 04:25:55;;;;;;;6.60;1.50;;;;;;;25.35;43.18;98990.34;3399897;29;20136;-69
2021/07/21 04:27:37;;;;;;;5.93;1.88;;;;;;;25.33;43.02;98978.97;3399943;29;20040;-70
2021/07/21 04:29:38;;;;;;;3.42;1.45;;;;;;;25.38;43.16;98984.31;3402190;29;20056;-69
2021/07/21 04:31:26;;;;;;;2.92;1.40;;;;;;;25.39;42.99;98980.44;3380654;29;20502;-70
2021/07/21 04:33:08;;;;;;;3.47;1.40;;;;;;;25.44;43.17;98985.78;3375653;29;20080;-71
2021/07/21 04:34:51;;;;;;;3.55;1.73;;;;;;;25.44;42.82;98986.56;3385608;29;20052;-66
2021/07/21 04:36:35;;;;;;;2.85;1.52;;;;;;;25.43;42.76;98989.63;3390918;29;20067;-69
2021/07/21 04:38:17;;;;;;;8.45;1.90;;;;;;;25.46;42.85;98989.00;3399903;29;20047;-68
2021/07/21 04:40:16;;;;;;;2.25;1.60;;;;;;;25.50;42.90;98989.19;3416335;28;20050;-69
2021/07/21 04:41:57;;;;;;;7.20;1.77;;;;;;;25.50;43.42;98989.97;3402281;29;20134;-67
2021/07/21 04:43:44;;;;;;;5.70;1.40;;;;;;;25.49;43.14;98985.66;3400049;29;20328;-69
2021/07/21 04:45:50;;;;;;;11.05;1.75;;;;;;;25.56;43.08;98988.75;3389415;29;20648;-68
2021/07/21 04:47:31;;;;;;;8.30;2.40;;;;;;;25.60;43.51;98988.94;3386829;29;20047;-68
2021/07/21 04:49:15;;;;;;;11.63;2.13;;;;;;;25.60;43.23;98995.19;3397042;29;20044;-67
2021/07/21 04:50:56;;;;;;;4.95;1.60;;;;;;;25.63;43.00;98991.03;3399966;29;20044;-68
2021/07/21 04:52:37;;;;;;;7.72;1.73;;;;;;;25.64;43.19;98990.72;3399798;29;20051;-68
2021/07/21 04:54:18;;;;;;;8.57;1.60;;;;;;;25.68;42.70;98993.63;3402027;29;20094;-69
2021/07/21 04:56:01;;;;;;;5.40;1.05;;;;;;;25.71;42.92;98994.94;3389312;29;20070;-69
2021/07/21 04:57:43;;;;;;;4.45;1.90;;;;;;;25.75;43.75;98996.72;3389303;29;20052;-68
2021/07/21 04:59:32;;;;;;;7.28;1.80;;;;;;;25.80;43.92;98993.88;3388307;29;20459;-67
2021/07/21 05:01:15;;;;;;;4.00;1.80;;;;;;;25.83;44.07;98995.97;3389505;29;20048;-67
2021/07/21 05:02:58;;;;;;;6.28;1.98;;;;;;;25.82;43.62;98993.56;3386265;29;20111;-67
2021/07/21 05:04:39;;;;;;;9.98;1.77;;;;;;;25.80;43.66;98999.34;3389759;29;20146;-68
2021/07/21 05:06:47;;;;;;;8.77;2.28;;;;;;;25.80;43.89;98998.53;3399972;29;20042;-68
2021/07/21 05:08:28;;;;;;;3.33;1.63;;;;;;;25.82;44.20;98997.09;3388749;29;20055;-67
2021/07/21 05:10:27;;;;;;;26.40;3.10;;;;;;;25.84;44.12;98996.78;3402231;29;20039;-69
2021/07/21 05:12:10;;;;;;;15.25;2.50;;;;;;;25.84;43.67;98994.03;3375505;29;20572;-68
2021/07/21 05:13:57;;;;;;;12.73;3.00;;;;;;;25.88;43.23;98995.06;3380947;29;20043;-69
2021/07/21 05:15:44;;;;;;;7.88;1.90;;;;;;;25.93;43.13;98997.66;3399545;29;20075;-67
2021/07/21 05:17:28;;;;;;;4.80;2.10;;;;;;;25.96;42.66;98997.03;3413521;28;20071;-70
2021/07/21 05:19:11;;;;;;;7.47;2.40;;;;;;;26.01;43.06;98996.91;3401638;29;20128;-69
2021/07/21 05:20:55;;;;;;;5.53;1.73;;;;;;;26.07;43.15;98992.09;3399656;29;20078;-69
2021/07/21 05:22:36;;;;;;;;;;;;;;;26.17;42.86;99002.75;3413990;28;20129;-69
2021/07/21 05:24:17;;;;;;;6.93;1.73;;;;;;;26.16;43.19;98992.16;3412052;28;19926;-69
2021/07/21 05:25:59;;;;;;;3.85;1.50;;;;;;;26.19;43.67;98991.53;3402363;29;20043;-69
2021/07/21 05:27:48;;;;;;;4.70;1.63;;;;;;;26.19;43.62;98989.59;3388518;29;20071;-69
2021/07/21 05:29:29;;;;;;;3.87;1.87;;;;;;;26.22;43.96;98999.88;3388405;29;20430;-69
2021/07/21 05:31:16;;;;;;;5.78;2.00;;;;;;;26.26;43.72;98994.63;3388766;29;20199;-69
2021/07/21 05:33:16;;;;;;;15.82;2.83;;;;;;;26.28;43.45;99004.09;3388657;29;20056;-68
2021/07/21 05:34:57;;;;;;;4.15;2.15;;;;;;;26.26;42.73;99000.88;3403058;28;20055;-69
2021/07/21 05:36:42;;;;;;;5.75;2.00;;;;;;;26.27;43.37;99001.69;3394030;29;20043;-67
2021/07/21 05:38:32;;;;;;;23.25;2.63;;;;;;;26.25;43.11;98995.72;3386982;29;20392;-70
2021/07/21 05:40:14;;;;;;;5.40;2.05;;;;;;;26.32;43.44;99001.53;3398067;29;20574;-70
2021/07/21 05:42:13;;;;;;;7.63;2.17;;;;;;;26.40;42.53;99002.69;3415485;28;20097;-70
2021/07/21 05:43:55;;;;;;;3.08;1.80;;;;;;;26.41;42.27;98991.47;3400577;29;20055;-69
2021/07/21 05:45:36;;;;;;;8.47;2.87;;;;;;;26.43;41.85;99000.13;3392215;29;20132;-70
2021/07/21 05:47:18;;;;;;;3.00;1.80;;;;;;;26.40;41.74;98995.28;3385893;29;20432;-70
2021/07/21 05:48:59;;;;;;;12.17;2.90;;;;;;;26.50;42.09;98997.72;3374359;29;20129;-70
2021/07/21 05:50:49;;;;;;;7.10;1.80;;;;;;;26.58;41.74;99000.84;3412519;28;20517;-70
2021/07/21 05:52:30;;;;;;;6.85;1.88;;;;;;;26.64;41.48;98991.38;3401396;29;20051;-70
2021/07/21 05:54:12;;;;;;;7.50;2.47;;;;;;;26.70;41.46;98992.84;3387941;29;20127;-70
2021/07/21 05:55:55;;;;;;;7.53;1.95;;;;;;;26.77;41.69;98993.19;3412436;28;20609;-69
2021/07/21 05:57:38;;;;;;;4.00;1.58;;;;;;;26.83;41.04;98991.09;3394343;29;20532;-71
2021/07/21 05:59:21;;;;;;;3.80;2.33;;;;;;;26.87;40.98;98992.06;3399424;29;20046;-70
2021/07/21 06:01:02;;;;;;;7.28;2.50;;;;;;;26.90;40.70;98994.13;3391039;29;20161;-71
2021/07/21 06:02:45;;;;;;;7.85;2.03;;;;;;;26.95;40.75;98994.81;3398582;29;20054;-70
2021/07/21 06:04:33;;;;;;;10.90;2.33;;;;;;;27.02;40.56;98988.84;3399366;29;20043;-69
2021/07/21 06:06:38;;;;;;;4.65;2.15;;;;;;;27.07;40.61;98976.94;3378748;29;20463;-70
2021/07/21 06:08:37;;;;;;;4.65;2.10;;;;;;;27.15;40.65;98987.09;3389127;29;20043;-70
2021/07/21 06:10:30;;;;;;;14.43;3.33;;;;;;;27.22;40.38;98990.19;3393789;29;20126;-70
2021/07/21 06:12:15;;;;;;;27.85;4.22;;;;;;;27.25;40.07;98981.31;3398788;29;20083;-70
2021/07/21 06:13:59;;;;;;;30.03;3.77;;;;;;;27.29;39.82;98984.22;3412307;28;20054;-71
2021/07/21 06:15:42;;;;;;;7.07;2.58;;;;;;;27.34;40.09;98978.59;3397714;29;20109;-69
2021/07/21 06:17:23;;;;;;;8.00;2.90;;;;;;;27.40;40.04;98983.56;3398944;29;20082;-69
2021/07/21 06:19:18;;;;;;;16.20;3.00;;;;;;;27.46;39.70;98986.94;3401904;29;20071;-69
2021/07/21 06:20:59;;;;;;;15.82;3.97;;;;;;;27.52;39.02;98982.09;3399447;29;20044;-71
2021/07/21 06:22:42;;;;;;;23.27;3.50;;;;;;;27.57;39.39;98988.22;3388901;29;20048;-69
2021/07/21 06:24:47;;;;;;;11.07;2.95;;;;;;;27.66;38.88;98982.72;3392607;29;20396;-72
2021/07/21 06:26:39;;;;;;;14.05;2.47;;;;;;;27.77;38.82;98983.97;3389294;29;20047;-70
2021/07/21 06:28:48;;;;;;;24.45;3.28;;;;;;;27.90;38.74;98984.13;3375138;29;20610;-70
2021/07/21 06:30:30;;;;;;;37.90;3.72;;;;;;;27.94;37.75;98974.94;3385300;29;20411;-69
2021/07/21 06:32:12;;;;;;;11.00;2.97;;;;;;;28.02;37.77;98979.59;3385533;29;20040;-71
2021/07/21 06:33:56;;;;;;;21.80;3.55;;;;;;;28.08;38.29;98976.66;3392695;29;20044;-71
2021/07/21 06:35:41;;;;;;;10.90;2.47;;;;;;;28.18;37.33;98977.09;3389138;29;20550;-69
2021/07/21 06:37:26;;;;;;;20.20;2.90;;;;;;;28.26;38.02;98979.00;3374641;29;20040;-71
2021/07/21 06:39:11;;;;;;;12.13;2.72;;;;;;;28.31;37.70;98966.25;3386175;29;20488;-69
2021/07/21 06:40:52;;;;;;;22.02;3.17;;;;;;;28.47;37.45;98972.78;3388461;29;20044;-70
2021/07/21 06:42:33;;;;;;;18.60;2.50;;;;;;;28.59;37.63;98969.34;3388592;29;20059;-70
2021/07/21 06:44:15;;;;;;;18.02;2.42;;;;;;;28.70;36.93;98974.09;3375146;29;20040;-69
2021/07/21 06:46:05;;;;;;;14.77;2.65;;;;;;;28.82;36.78;98967.09;3375005;29;20048;-71
2021/07/21 06:47:47;;;;;;;10.65;2.35;;;;;;;28.94;36.44;98972.66;3387714;28;20111;-70
2021/07/21 06:49:42;;;;;;;15.63;3.70;;;;;;;28.98;36.71;98967.31;3389683;29;20036;-70
2021/07/21 06:51:23;;;;;;;12.02;2.35;;;;;;;29.01;36.42;98978.41;3397647;29;20036;-71
2021/07/21 06:53:04;;;;;;;13.30;2.47;;;;;;;29.05;36.28;98967.59;3400469;29;20048;-74
2021/07/21 06:55:05;;;;;;;11.48;2.83;;;;;;;29.08;36.48;98973.22;3400716;28;20043;-72
2021/07/21 06:56:59;;;;;;;14.95;2.08;;;;;;;29.11;36.39;98975.28;3399770;29;20127;-69
2021/07/21 06:58:58;;;;;;;23.80;3.08;;;;;;;29.12;36.23;98968.66;3396617;29;20036;-71
2021/07/21 07:00:40;;;;;;;15.38;2.97;;;;;;;29.23;36.16;98973.75;3400634;29;20063;-71
2021/07/21 07:02:39;;;;;;;14.30;2.65;;;;;;;29.28;36.07;98971.59;3402014;28;20047;-71
2021/07/21 07:04:39;;;;;;;8.05;2.60;;;;;;;29.35;36.17;98973.78;3401401;29;20031;-71
2021/07/21 07:06:49;;;;;;;7.97;2.38;;;;;;;29.40;36.39;98970.81;3365952;29;20057;-72
2021/07/21 07:08:48;;;;;;;18.48;3.65;;;;;;;29.42;35.55;98968.56;3401023;28;20142;-78
2021/07/21 07:10:47;;;;;;;12.05;2.88;;;;;;;29.45;35.42;98965.13;3399759;29;20059;-77
2021/07/21 07:12:28;;;;;;;5.65;2.40;;;;;;;29.48;34.95;98960.91;3400852;29;20514;-77
2021/07/21 07:14:09;;;;;;;18.77;2.23;;;;;;;29.50;34.57;98967.66;3387034;29;20051;-77
2021/07/21 07:15:50;;;;;;;7.93;1.93;;;;;;;29.47;34.55;98968.34;3399085;29;20139;-77
2021/07/21 07:17:32;;;;;;;4.90;1.77;;;;;;;29.49;34.61;98970.75;3388327;29;20280;-77
2021/07/21 07:19:13;;;;;;;;;;;;;;;29.57;35.00;98973.41;3399036;29;20138;-78
2021/07/21 07:20:54;;;;;;;4.18;1.95;;;;;;;29.51;34.30;98966.53;3400604;29;20302;-79
2021/07/21 07:22:35;;;;;;;9.73;2.05;;;;;;;29.54;34.31;98968.59;3402786;29;20051;-77
2021/07/21 07:24:16;;;;;;;6.67;2.27;;;;;;;29.46;34.08;98955.75;3412650;28;20387;-79
2021/07/21 07:25:56;;;;;;;5.63;2.00;;;;;;;29.58;34.34;98968.72;3390433;29;20040;-84
2021/07/21 07:27:37;;;;;;;8.23;2.03;;;;;;;29.54;34.02;98968.59;3402141;29;20302;-82
2021/07/21 07:29:18;;;;;;;4.93;1.67;;;;;;;29.56;33.96;98969.06;3377777;29;20510;-85
2021/07/21 07:30:59;;;;;;;4.27;1.63;;;;;;;29.63;33.88;98964.97;3389738;29;20048;-81
2021/07/21 07:32:40;;;;;;;5.40;1.80;;;;;;;29.67;34.07;98976.91;3414844;28;20043;-79
2021/07/21 07:34:21;;;;;;;14.38;2.92;;;;;;;29.73;34.00;98970.06;3416269;28;20051;-81
2021/07/21 07:36:02;;;;;;;3.07;1.53;;;;;;;29.78;33.56;98964.34;3391013;29;20103;-81
2021/07/21 07:37:42;;;;;;;7.05;1.92;;;;;;;29.86;33.63;98963.44;3402149;29;20515;-82
2021/07/21 07:39:23;;;;;;;5.13;4.53;;;;;;;29.86;33.16;98968.94;3405762;29;20198;-79
2021/07/21 07:41:04;;;;;;;6.43;2.53;;;;;;;29.96;33.39;98967.69;3404925;29;20063;-79
2021/07/21 07:42:45;;;;;;;18.70;3.88;;;;;;;30.02;33.46;98971.81;3404826;28;20056;-79
2021/07/21 07:44:27;;;;;;;10.65;3.60;;;;;;;29.99;33.01;98972.50;3390380;29;20075;-78
2021/07/21 07:46:09;;;;;;;5.20;2.55;;;;;;;29.99;33.22;98967.00;3390503;29;20680;-81
2021/07/21 07:47:49;;;;;;;9.40;2.85;;;;;;;30.01;33.07;98981.22;3414993;28;20040;-78
2021/07/21 07:49:31;;;;;;;6.30;2.70;;;;;;;29.95;33.06;98972.38;3416942;28;20533;-79
2021/07/21 07:51:12;;;;;;;15.38;2.85;;;;;;;29.88;33.31;98960.34;3416926;28;20035;-77
2021/07/21 07:52:53;;;;;;;5.93;2.08;;;;;;;29.82;33.26;98962.53;3403568;29;20050;-75
2021/07/21 07:54:34;;;;;;;4.43;1.80;;;;;;;29.87;33.06;98975.22;3401383;29;20047;-82
2021/07/21 07:56:14;;;;;;;4.20;3.43;;;;;;;29.86;33.26;98968.94;3414549;28;20574;-80
2021/07/21 07:57:55;;;;;;;11.63;3.47;;;;;;;29.91;33.05;98974.19;3382960;29;20048;-79
2021/07/21 07:59:36;;;;;;;30.60;4.28;;;;;;;30.02;33.36;98971.00;3396249;29;20071;-78
2021/07/21 08:01:20;;;;;;;28.80;4.50;;;;;;;30.14;33.28;98968.28;3369636;29;20032;-79
2021/07/21 08:03:01;;;;;;;28.48;3.53;;;;;;;30.27;33.18;98978.16;3383632;29;20099;-81
2021/07/21 08:04:44;;;;;;;31.92;5.25;;;;;;;30.34;32.97;98953.66;3388345;29;20051;-79
2021/07/21 08:06:27;;;;;;;65.72;8.75;;;;;;;30.46;33.32;98941.03;3401447;29;20669;-79
2021/07/21 08:08:08;;;;;;;37.40;5.28;;;;;;;30.54;32.93;98927.16;3404255;29;20135;-79
2021/07/21 08:09:48;;;;;;;32.03;5.93;;;;;;;30.64;32.80;98923.13;3403727;29;20707;-76
2021/07/21 08:11:29;;;;;;;16.67;3.13;;;;;;;30.91;32.50;98962.09;3388857;29;20540;-78
2021/07/21 08:13:10;;;;;;;23.83;4.53;;;;;;;30.92;32.53;98963.69;3401260;29;20062;-80
2021/07/21 08:14:51;;;;;;;13.10;3.67;;;;;;;30.68;32.43;98926.78;3404345;29;20346;-80
2021/07/21 08:16:31;;;;;;;24.60;4.17;;;;;;;30.92;32.63;98952.66;3404121;29;20075;-78
2021/07/21 08:18:13;;;;;;;6.60;3.37;;;;;;;30.92;32.58;98958.97;3404467;29;20291;-80
2021/07/21 08:19:53;;;;;;;18.30;3.85;;;;;;;30.97;32.65;98950.47;3404016;29;20392;-77
2021/07/21 08:21:34;;;;;;;3.17;2.10;;;;;;;30.98;32.15;98949.34;3453281;23;20093;-78
2021/07/21 08:23:15;;;;;;;7.10;2.57;;;;;;;31.09;32.60;98952.38;3415357;28;20298;-80
2021/07/21 08:24:56;;;;;;;12.13;5.30;;;;;;;31.10;32.60;98953.97;3390636;29;20284;-77